Terminal Aerodrome Forecast
Issued by NWS

Current Version | Previous Version | Text Only | Print | Product List | Glossary On
Versions: 1 2 3 4 5 6 7 8 9 10 11 12 13
000
FTUS44 KLIX 290500
TAFGPT
TAF
KGPT 290522Z 2906/3006 15004KT P6SM FEW250
      TEMPO 2909/2913 5SM BR
     FM291800 19008KT P6SM SCT250
     FM300300 24005KT P6SM BKN100=

USA.gov is the U.S. government's official web portal to all federal, state and local government web resources and services.